createdAt,value
2022-11-16T00:04:06.630Z,8.90
2022-11-16T00:09:22.487Z,8.82
2022-11-16T00:14:27.274Z,8.81
2022-11-16T00:19:28.851Z,8.79
2022-11-16T00:24:29.597Z,8.85
2022-11-16T00:29:30.524Z,8.96
2022-11-16T00:34:31.291Z,8.90
2022-11-16T00:39:32.013Z,8.92
2022-11-16T00:44:32.787Z,8.83
2022-11-16T00:49:33.822Z,8.81
2022-11-16T00:54:34.699Z,8.78
2022-11-16T00:59:35.522Z,8.84
2022-11-16T01:04:36.603Z,8.75
2022-11-16T01:09:37.339Z,8.81
2022-11-16T01:14:43.940Z,8.75
2022-11-16T01:19:45.632Z,8.72
2022-11-16T01:24:46.811Z,8.81
2022-11-16T01:29:47.808Z,8.83
2022-11-16T01:34:48.984Z,8.84
2022-11-16T01:40:00.249Z,8.84
2022-11-16T01:46:07.720Z,8.83
2022-11-16T01:51:09.038Z,8.89
2022-11-16T01:56:10.333Z,8.94
2022-11-16T02:01:22.209Z,8.95
2022-11-16T02:07:22.814Z,8.99
2022-11-16T02:16:03.180Z,9.06
2022-11-16T02:22:05.796Z,9.02
2022-11-16T02:30:15.169Z,9.09
2022-11-16T02:35:39.862Z,9.08
2022-11-16T02:40:46.360Z,9.07
2022-11-16T02:45:55.418Z,9.02
2022-11-16T02:50:56.829Z,9.03
2022-11-16T02:55:58.809Z,9.03
2022-11-16T03:01:12.891Z,9.09
2022-11-16T03:06:28.216Z,9.07
2022-11-16T03:11:51.248Z,9.08
2022-11-16T03:16:57.121Z,9.06
2022-11-16T03:22:13.551Z,9.08
2022-11-16T03:28:58.042Z,9.05
2022-11-16T03:34:02.643Z,8.98
2022-11-16T03:39:09.971Z,8.95
2022-11-16T03:44:13.180Z,9.00
2022-11-16T03:49:14.141Z,8.88
2022-11-16T03:54:16.080Z,8.84
2022-11-16T03:59:16.931Z,8.94
2022-11-16T04:04:37.737Z,8.92
2022-11-16T04:09:57.641Z,8.95
2022-11-16T04:15:17.563Z,8.96
2022-11-16T04:20:37.048Z,8.87
2022-11-16T04:25:40.687Z,8.92
2022-11-16T04:31:08.497Z,8.94
2022-11-16T04:36:29.241Z,8.99
2022-11-16T04:41:50.158Z,8.98
2022-11-16T04:47:07.124Z,9.01
2022-11-16T04:52:08.497Z,8.94
2022-11-16T04:57:09.822Z,8.88
2022-11-16T05:02:10.874Z,8.93
2022-11-16T05:07:17.956Z,8.95
2022-11-16T05:12:25.524Z,8.95
2022-11-16T05:17:30.024Z,9.03
2022-11-16T05:22:32.991Z,9.06
2022-11-16T05:27:35.821Z,9.04
2022-11-16T05:32:36.996Z,9.00
2022-11-16T05:37:39.241Z,8.91
2022-11-16T05:42:40.248Z,8.94
2022-11-16T05:47:41.702Z,8.99
2022-11-16T05:52:42.623Z,8.94
2022-11-16T05:57:44.942Z,8.84
2022-11-16T06:02:45.897Z,8.77
2022-11-16T06:07:53.780Z,8.71
2022-11-16T06:12:55.402Z,8.72
2022-11-16T06:17:57.567Z,8.66
2022-11-16T06:22:59.351Z,8.56
2022-11-16T06:28:06.621Z,8.51
2022-11-16T06:33:09.264Z,8.48
2022-11-16T06:38:17.602Z,8.42
2022-11-16T06:43:19.868Z,8.32
2022-11-16T06:48:21.602Z,8.31
2022-11-16T06:53:28.703Z,8.30
2022-11-16T06:58:32.090Z,8.35
2022-11-16T07:03:33.380Z,8.19
2022-11-16T07:08:37.117Z,8.21
2022-11-16T07:13:38.625Z,8.23
2022-11-16T07:18:41.697Z,8.38
2022-11-16T07:23:43.993Z,8.52
2022-11-16T07:28:48.670Z,8.55
2022-11-16T07:33:52.036Z,8.67
2022-11-16T07:39:11.616Z,8.34
2022-11-16T07:44:13.365Z,8.16
2022-11-16T07:49:17.674Z,8.08
2022-11-16T07:54:34.662Z,8.07
2022-11-16T07:59:36.162Z,8.04
2022-11-16T08:04:40.604Z,8.10
2022-11-16T08:09:42.709Z,8.46
2022-11-16T08:14:46.567Z,8.49
2022-11-16T08:19:47.798Z,8.70
2022-11-16T08:24:49.554Z,8.78
2022-11-16T08:29:52.050Z,9.10
2022-11-16T08:34:52.936Z,9.18
2022-11-16T08:39:54.419Z,9.35
2022-11-16T08:44:55.499Z,9.42
2022-11-16T08:49:56.577Z,9.46
2022-11-16T08:54:58.696Z,9.45
2022-11-16T09:00:00.224Z,9.83
2022-11-16T09:05:01.640Z,10.25
2022-11-16T09:10:03.102Z,10.50
2022-11-16T09:15:05.917Z,10.07
2022-11-16T09:20:07.675Z,9.95
2022-11-16T09:25:09.214Z,10.15
2022-11-16T09:30:11.297Z,9.87
2022-11-16T09:35:12.203Z,9.82
2022-11-16T09:40:13.235Z,10.18
2022-11-16T09:46:40.901Z,10.75
2022-11-16T09:51:46.376Z,10.75
2022-11-16T09:56:51.017Z,10.62
2022-11-16T10:02:01.933Z,10.42
2022-11-16T10:07:14.182Z,10.50
2022-11-16T10:13:24.599Z,10.78
2022-11-16T10:21:27.104Z,10.58
2022-11-16T10:26:44.461Z,11.01
2022-11-16T10:32:02.830Z,10.94
2022-11-16T10:37:07.669Z,10.81
2022-11-16T10:42:18.512Z,10.54
2022-11-16T10:47:32.369Z,10.32
2022-11-16T10:52:34.783Z,10.46
2022-11-16T10:57:56.243Z,10.19
2022-11-16T11:02:57.058Z,10.11
2022-11-16T11:08:09.434Z,9.84
2022-11-16T11:13:26.115Z,9.63
2022-11-16T11:18:29.228Z,9.72
2022-11-16T11:23:37.009Z,10.15
2022-11-16T11:28:44.839Z,9.99
2022-11-16T11:33:55.196Z,9.79
2022-11-16T11:39:00.461Z,10.29
2022-11-16T11:44:14.249Z,10.40
2022-11-16T11:49:27.985Z,10.33
2022-11-16T11:54:45.525Z,11.12
2022-11-16T11:59:50.897Z,11.00
2022-11-16T12:05:26.651Z,10.83
2022-11-16T12:10:52.917Z,10.86
2022-11-16T12:17:45.419Z,10.66
2022-11-16T12:23:23.788Z,11.91
2022-11-16T12:29:45.025Z,11.96
2022-11-16T12:36:38.623Z,11.62
2022-11-16T12:45:32.077Z,11.70
2022-11-16T12:50:58.916Z,11.84
2022-11-16T13:01:08.537Z,11.57
2022-11-16T13:06:17.111Z,11.48
2022-11-16T13:11:31.268Z,11.41
2022-11-16T13:16:33.656Z,11.68
2022-11-16T13:22:18.049Z,11.38
2022-11-16T13:27:47.278Z,10.93
2022-11-16T13:33:25.401Z,10.96
2022-11-16T13:38:50.679Z,10.88
2022-11-16T13:43:51.976Z,11.49
2022-11-16T13:48:52.795Z,12.22
2022-11-16T13:59:27.600Z,11.20
2022-11-16T14:04:54.254Z,11.08
2022-11-16T14:09:55.433Z,11.01
2022-11-16T14:15:19.230Z,10.76
2022-11-16T14:20:48.936Z,10.45
2022-11-16T14:27:34.256Z,10.32
2022-11-16T14:32:45.885Z,10.14
2022-11-16T14:37:57.727Z,10.14
2022-11-16T14:43:20.974Z,10.39
2022-11-16T14:48:31.636Z,10.28
2022-11-16T14:53:36.238Z,10.58
2022-11-16T14:58:38.165Z,10.97
2022-11-16T15:03:54.729Z,10.55
2022-11-16T15:08:59.875Z,10.18
2022-11-16T15:14:00.896Z,9.89
2022-11-16T15:19:01.966Z,9.86
2022-11-16T15:29:35.222Z,9.50
2022-11-16T15:34:38.345Z,9.41
2022-11-16T15:39:39.281Z,9.30
2022-11-16T15:44:41.976Z,9.24
2022-11-16T15:49:48.767Z,9.19
2022-11-16T15:55:03.034Z,9.20
2022-11-16T16:00:04.795Z,9.10
2022-11-16T16:05:06.705Z,9.12
2022-11-16T16:10:23.841Z,9.13
2022-11-16T16:15:36.251Z,9.08
2022-11-16T16:20:37.204Z,8.84
2022-11-16T16:25:38.173Z,8.65
2022-11-16T16:30:38.966Z,8.51
2022-11-16T16:35:39.733Z,8.43
2022-11-16T16:40:40.477Z,8.39
2022-11-16T16:45:43.284Z,8.39
2022-11-16T16:50:44.025Z,8.32
2022-11-16T16:55:48.374Z,8.25
2022-11-16T17:00:49.163Z,8.24
2022-11-16T17:05:50.106Z,8.32
2022-11-16T17:10:51.093Z,8.38
2022-11-16T17:15:51.967Z,8.38
2022-11-16T17:20:52.699Z,8.41
2022-11-16T17:25:53.831Z,8.50
2022-11-16T17:31:00.292Z,8.41
2022-11-16T17:36:03.098Z,8.26
2022-11-16T17:41:06.498Z,8.25
2022-11-16T17:46:13.845Z,8.21
2022-11-16T17:51:17.514Z,8.28
2022-11-16T17:56:21.316Z,8.43
2022-11-16T18:01:22.145Z,8.35
2022-11-16T18:06:24.569Z,8.38
2022-11-16T18:11:26.820Z,8.30
2022-11-16T18:16:31.011Z,8.18
2022-11-16T18:21:38.406Z,8.28
2022-11-16T18:26:40.180Z,8.26
2022-11-16T18:31:40.960Z,8.34
2022-11-16T18:36:41.975Z,8.21
2022-11-16T18:41:48.749Z,8.17
2022-11-16T18:46:54.611Z,8.32
2022-11-16T18:51:55.416Z,8.37
2022-11-16T18:56:56.253Z,8.26
2022-11-16T19:01:57.012Z,8.28
2022-11-16T19:06:57.997Z,8.26
2022-11-16T19:11:58.864Z,8.26
2022-11-16T19:17:00.179Z,8.30
2022-11-16T19:22:01.157Z,8.22
2022-11-16T19:27:01.977Z,8.41
2022-11-16T19:32:02.850Z,8.38
2022-11-16T19:37:03.631Z,8.50
2022-11-16T19:42:04.436Z,8.57
2022-11-16T19:47:05.845Z,8.55
2022-11-16T19:52:06.691Z,8.58
2022-11-16T19:57:07.462Z,8.66
2022-11-16T20:02:09.382Z,8.70
2022-11-16T20:07:11.383Z,8.64
2022-11-16T20:12:12.114Z,8.56
2022-11-16T20:17:13.010Z,8.51
2022-11-16T20:22:14.774Z,8.47
2022-11-16T20:27:15.609Z,8.46
2022-11-16T20:32:17.132Z,8.48
2022-11-16T20:37:18.054Z,8.52
2022-11-16T20:42:18.845Z,8.37
2022-11-16T20:47:19.675Z,8.34
2022-11-16T20:52:20.904Z,8.39
2022-11-16T20:57:22.065Z,8.36
2022-11-16T21:02:22.813Z,8.63
2022-11-16T21:07:23.741Z,8.46
2022-11-16T21:12:43.220Z,8.45
2022-11-16T21:17:44.098Z,8.50
2022-11-16T21:22:44.859Z,8.34
2022-11-16T21:27:46.430Z,8.36
2022-11-16T21:32:47.168Z,8.42
2022-11-16T21:37:47.923Z,8.42
2022-11-16T21:42:50.780Z,8.50
2022-11-16T21:47:51.566Z,8.45
2022-11-16T21:52:52.424Z,8.49
2022-11-16T21:57:53.325Z,8.31
2022-11-16T22:02:54.599Z,8.41
2022-11-16T22:07:55.889Z,8.36
2022-11-16T22:12:56.653Z,8.38
2022-11-16T22:17:57.434Z,8.35
2022-11-16T22:22:58.168Z,8.30
2022-11-16T22:28:19.576Z,8.12
2022-11-16T22:33:21.295Z,8.14
2022-11-16T22:38:22.523Z,8.09
2022-11-16T22:43:25.645Z,8.08
2022-11-16T22:48:34.032Z,8.01
2022-11-16T22:53:35.208Z,8.01
2022-11-16T22:58:37.794Z,7.96
2022-11-16T23:03:39.081Z,8.01
2022-11-16T23:08:40.703Z,7.98
2022-11-16T23:14:01.061Z,7.95
2022-11-16T23:19:02.619Z,7.94
2022-11-16T23:24:22.584Z,7.97
2022-11-16T23:29:23.421Z,7.92
2022-11-16T23:34:24.183Z,7.85
2022-11-16T23:39:24.915Z,7.87
2022-11-16T23:44:25.691Z,7.69
2022-11-16T23:49:26.535Z,7.72
2022-11-16T23:54:27.273Z,7.77
2022-11-16T23:59:28.159Z,7.68
